Terminal Aerodrome Forecast
Issued by NWS

Home | Current Version | Previous Version | Text Only | Print | Product List | Glossary On
Versions: 1 2 3 4 5 6 7 8 9 10 11 12
000
FTUS45 KTFX 291100
TAFBZN
TAF
KBZN 291126Z 2912/3012 VRB05KT P6SM BKN120
     FM292000 VRB06KT P6SM VCTS SCT060CB BKN090
     FM300200 15005KT P6SM SCT150=

USA.gov is the U.S. government's official web portal to all federal, state and local government web resources and services.